Jewell Manor, New York
Current Conditions -  °F | °C
As of 10:54 AM on Sunday 23 Nov 2014 (Local Time) from KSYR Reporting Station
Overcast Overcast  
Wind Chill: 53°   Ceiling: 6000
Heat Index: 53°   Visibility: 10mi
Dew Point: 39°   Wind: 9mph
Humidity: 59%   Direction: 200°SSW
Pressure: 30.07"   Gusts: NA
Location:  43.1098°N, 76.1878°W
Report Text: KSYR 231554Z 20008KT 10SM FEW035 OVC060 12/04 A3007 RMK AO2 SLP180 T01170039 $
Loading
Personal Weather Stations






























Interactive Weather Map New forecast layout! Learn more

10-Day Weather Forecast

Advertisements
Track Severe Weather on mobile